createdAt,value
2019-02-11T00:02:11.027Z,100163.89
2019-02-11T00:04:36.868Z,100173.64
2019-02-11T00:07:05.461Z,100180.77
2019-02-11T00:09:31.311Z,100190.25
2019-02-11T00:11:57.157Z,100188.37
2019-02-11T00:14:22.983Z,100204.02
2019-02-11T00:16:48.821Z,100212.58
2019-02-11T00:19:14.674Z,100213.77
2019-02-11T00:21:40.595Z,100214.45
2019-02-11T00:24:06.408Z,100226.08
2019-02-11T00:26:32.269Z,100222.52
2019-02-11T00:28:58.079Z,100234.23
2019-02-11T00:31:24.023Z,100237.98
2019-02-11T00:33:50.147Z,100251.42
2019-02-11T00:36:17.932Z,100252.27
2019-02-11T00:38:43.782Z,100257.69
2019-02-11T00:41:09.621Z,100265.02
2019-02-11T00:43:35.464Z,100265.29
2019-02-11T00:46:01.302Z,100277.12
2019-02-11T00:48:27.119Z,100277.68
2019-02-11T00:50:52.976Z,100277.31
2019-02-11T00:53:18.791Z,100285.20
2019-02-11T00:55:44.649Z,100287.91
2019-02-11T00:58:10.504Z,100306.14
2019-02-11T01:00:36.332Z,100305.74
2019-02-11T01:03:02.178Z,100314.19
2019-02-11T01:05:28.013Z,100322.26
2019-02-11T01:07:53.853Z,100327.34
2019-02-11T01:10:19.776Z,100332.60
2019-02-11T01:12:45.616Z,100346.21
2019-02-11T01:15:11.561Z,100348.42
2019-02-11T01:17:37.416Z,100352.00
2019-02-11T01:20:06.440Z,100363.25
2019-02-11T01:22:32.392Z,100356.98
2019-02-11T01:24:58.219Z,100365.71
2019-02-11T01:27:24.061Z,100367.98
2019-02-11T01:29:49.885Z,100375.72
2019-02-11T01:32:15.732Z,100376.51
2019-02-11T01:34:41.553Z,100378.38
2019-02-11T01:37:07.499Z,100380.53
2019-02-11T01:39:33.322Z,100389.56
2019-02-11T01:41:59.132Z,100393.03
2019-02-11T01:44:24.987Z,100395.38
2019-02-11T01:46:50.913Z,100401.02
2019-02-11T01:49:16.751Z,100401.38
2019-02-11T01:51:42.564Z,100404.00
2019-02-11T01:54:08.407Z,100410.77
2019-02-11T01:56:34.241Z,100413.59
2019-02-11T01:59:00.110Z,100413.13
2019-02-11T02:01:25.929Z,100417.98
2019-02-11T02:03:51.775Z,100419.71
2019-02-11T02:06:17.593Z,100426.36
2019-02-11T02:08:43.443Z,100432.55
2019-02-11T02:11:09.265Z,100432.47
2019-02-11T02:13:35.104Z,100444.49
2019-02-11T02:16:00.951Z,100450.52
2019-02-11T02:18:26.745Z,100457.91
2019-02-11T02:20:52.588Z,100459.05
2019-02-11T02:23:18.400Z,100462.44
2019-02-11T02:25:44.244Z,100468.61
2019-02-11T02:28:10.075Z,100472.45
2019-02-11T02:30:35.928Z,100486.57
2019-02-11T02:33:01.731Z,100485.51
2019-02-11T02:35:27.579Z,100487.67
2019-02-11T02:37:53.409Z,100488.44
2019-02-11T02:40:19.246Z,100501.57
2019-02-11T02:42:45.063Z,100504.09
2019-02-11T02:45:11.032Z,100501.03
2019-02-11T02:47:36.882Z,100507.31
2019-02-11T02:50:05.429Z,100513.70
2019-02-11T02:52:31.269Z,100517.82
2019-02-11T02:54:57.045Z,100521.39
2019-02-11T02:57:22.878Z,100513.33
2019-02-11T02:59:48.738Z,100520.84
2019-02-11T03:02:15.198Z,100525.89
2019-02-11T03:04:41.013Z,100526.08
2019-02-11T03:07:06.845Z,100523.81
2019-02-11T03:09:32.649Z,100534.80
2019-02-11T03:11:58.489Z,100545.79
2019-02-11T03:14:24.298Z,100558.02
2019-02-11T03:16:50.139Z,100557.66
2019-02-11T03:19:15.953Z,100559.52
2019-02-11T03:21:41.803Z,100565.33
2019-02-11T03:24:07.612Z,100561.20
2019-02-11T03:26:33.464Z,100566.85
2019-02-11T03:28:59.276Z,100578.42
2019-02-11T03:31:25.116Z,100577.32
2019-02-11T03:33:50.940Z,100582.87
2019-02-11T03:36:16.758Z,100584.08
2019-02-11T03:38:42.600Z,100588.12
2019-02-11T03:41:08.445Z,100598.48
2019-02-11T03:43:34.286Z,100604.09
2019-02-11T03:46:00.118Z,100612.56
2019-02-11T03:48:25.952Z,100608.80
2019-02-11T03:50:51.879Z,100614.82
2019-02-11T03:53:17.828Z,100621.69
2019-02-11T03:55:43.753Z,100627.60
2019-02-11T03:58:09.725Z,100627.02
2019-02-11T04:00:36.156Z,100628.34
2019-02-11T04:03:01.992Z,100643.94
2019-02-11T04:05:27.900Z,100640.83
2019-02-11T04:07:53.751Z,100645.83
2019-02-11T04:10:19.559Z,100649.20
2019-02-11T04:12:45.377Z,100657.56
2019-02-11T04:15:11.319Z,100665.38
2019-02-11T04:17:37.132Z,100669.14
2019-02-11T04:20:05.169Z,100677.06
2019-02-11T04:22:30.982Z,100681.19
2019-02-11T04:24:56.827Z,100687.58
2019-02-11T04:27:22.752Z,100686.05
2019-02-11T04:29:48.589Z,100700.19
2019-02-11T04:32:14.400Z,100705.53
2019-02-11T04:34:40.255Z,100713.63
2019-02-11T04:37:06.071Z,100713.53
2019-02-11T04:39:31.905Z,100719.84
2019-02-11T04:41:57.742Z,100725.77
2019-02-11T04:44:23.592Z,100728.66
2019-02-11T04:46:49.398Z,100733.19
2019-02-11T04:49:15.251Z,100733.81
2019-02-11T04:51:41.065Z,100742.66
2019-02-11T04:54:06.886Z,100745.20
2019-02-11T04:56:32.711Z,100751.27
2019-02-11T04:58:58.591Z,100749.02
2019-02-11T05:01:24.641Z,100754.85
2019-02-11T05:03:50.464Z,100752.59
2019-02-11T05:06:16.308Z,100771.52
2019-02-11T05:08:42.119Z,100773.13
2019-02-11T05:11:07.968Z,100772.44
2019-02-11T05:13:33.787Z,100773.28
2019-02-11T05:15:59.735Z,100781.88
2019-02-11T05:18:25.547Z,100786.79
2019-02-11T05:20:51.396Z,100797.73
2019-02-11T05:23:17.209Z,100798.80
2019-02-11T05:25:43.044Z,100794.09
2019-02-11T05:28:08.859Z,100803.60
2019-02-11T05:30:34.680Z,100808.44
2019-02-11T05:33:00.667Z,100811.96
2019-02-11T05:35:26.464Z,100814.17
2019-02-11T05:37:52.312Z,100816.45
2019-02-11T05:40:18.144Z,100818.37
2019-02-11T05:42:43.992Z,100822.38
2019-02-11T05:45:09.930Z,100825.77
2019-02-11T05:47:35.777Z,100830.39
2019-02-11T05:50:02.899Z,100835.81
2019-02-11T05:52:28.816Z,100842.23
2019-02-11T05:54:54.638Z,100846.92
2019-02-11T05:57:20.499Z,100848.09
2019-02-11T05:59:46.363Z,100854.23
2019-02-11T06:02:13.831Z,100856.50
2019-02-11T06:04:39.664Z,100867.32
2019-02-11T06:07:05.481Z,100885.27
2019-02-11T06:09:31.333Z,100881.55
2019-02-11T06:11:57.140Z,100882.22
2019-02-11T06:14:22.983Z,100889.09
2019-02-11T06:16:48.798Z,100899.92
2019-02-11T06:19:14.647Z,100898.64
2019-02-11T06:21:40.475Z,100913.86
2019-02-11T06:24:06.428Z,100917.36
2019-02-11T06:26:32.245Z,100925.16
2019-02-11T06:28:58.136Z,100928.73
2019-02-11T06:31:23.939Z,100940.33
2019-02-11T06:33:49.831Z,100946.77
2019-02-11T06:36:15.658Z,100949.17
2019-02-11T06:38:41.503Z,100948.63
2019-02-11T06:41:07.319Z,100962.19
2019-02-11T06:43:33.164Z,100967.11
2019-02-11T06:45:59.093Z,100977.97
2019-02-11T06:48:24.990Z,100987.38
2019-02-11T06:50:50.800Z,100990.36
2019-02-11T06:53:16.618Z,101007.06
2019-02-11T06:55:42.455Z,101007.77
2019-02-11T06:58:08.318Z,101024.08
2019-02-11T07:00:34.190Z,101018.89
2019-02-11T07:03:00.000Z,101029.58
2019-02-11T07:05:25.844Z,101034.98
2019-02-11T07:07:51.660Z,101042.33
2019-02-11T07:10:17.537Z,101048.74
2019-02-11T07:12:43.342Z,101047.36
2019-02-11T07:15:11.318Z,101054.55
2019-02-11T07:17:37.103Z,101057.08
2019-02-11T07:20:06.546Z,101060.87
2019-02-11T07:22:32.363Z,101071.72
2019-02-11T07:24:58.210Z,101078.91
2019-02-11T07:27:24.024Z,101083.14
2019-02-11T07:29:50.337Z,101088.98
2019-02-11T07:32:16.167Z,101092.27
2019-02-11T07:34:42.037Z,101101.88
2019-02-11T07:37:07.878Z,101096.21
2019-02-11T07:39:33.693Z,101100.56
2019-02-11T07:42:07.236Z,101110.23
2019-02-11T07:44:33.065Z,101111.85
2019-02-11T07:46:58.929Z,101122.22
2019-02-11T07:49:24.758Z,101130.65
2019-02-11T07:51:50.614Z,101131.59
2019-02-11T07:54:16.455Z,101130.73
2019-02-11T07:56:42.303Z,101135.59
2019-02-11T07:59:08.172Z,101142.37
2019-02-11T08:01:34.048Z,101142.14
2019-02-11T08:03:59.998Z,101147.34
2019-02-11T08:06:25.873Z,101149.20
2019-02-11T08:08:51.936Z,101149.60
2019-02-11T08:11:18.101Z,101156.77
2019-02-11T08:13:43.929Z,101156.77
2019-02-11T08:16:09.792Z,101170.20
2019-02-11T08:18:35.630Z,101165.79
2019-02-11T08:21:01.945Z,101173.63
2019-02-11T08:23:27.887Z,101175.38
2019-02-11T08:25:53.724Z,101190.77
2019-02-11T08:28:19.910Z,101186.19
2019-02-11T08:30:46.047Z,101188.66
2019-02-11T08:33:12.009Z,101213.36
2019-02-11T08:35:37.846Z,101216.23
2019-02-11T08:38:03.684Z,101222.50
2019-02-11T08:40:29.509Z,101227.88
2019-02-11T08:42:55.376Z,101229.77
2019-02-11T08:45:21.199Z,101232.20
2019-02-11T08:47:47.056Z,101240.98
2019-02-11T08:50:13.243Z,101241.22
2019-02-11T08:52:39.096Z,101248.89
2019-02-11T08:55:06.709Z,101254.19
2019-02-11T08:57:32.552Z,101269.64
2019-02-11T08:59:58.450Z,101269.64
2019-02-11T09:02:24.604Z,101264.33
2019-02-11T09:04:50.423Z,101267.37
2019-02-11T09:07:16.242Z,101268.86
2019-02-11T09:09:42.128Z,101273.25
2019-02-11T09:12:07.953Z,101272.42
2019-02-11T09:14:33.814Z,101272.83
2019-02-11T09:16:59.643Z,101279.34
2019-02-11T09:19:25.475Z,101290.63
2019-02-11T09:21:51.311Z,101290.86
2019-02-11T09:24:17.205Z,101290.74
2019-02-11T09:26:43.214Z,101291.11
2019-02-11T09:29:09.057Z,101298.79
2019-02-11T09:31:34.910Z,101307.02
2019-02-11T09:34:00.829Z,101322.84
2019-02-11T09:36:26.677Z,101324.48
2019-02-11T09:38:52.513Z,101325.25
2019-02-11T09:41:18.468Z,101320.44
2019-02-11T09:43:44.404Z,101323.94
2019-02-11T09:46:10.264Z,101331.58
2019-02-11T09:48:36.119Z,101339.47
2019-02-11T09:51:03.174Z,101341.30
2019-02-11T09:53:29.135Z,101340.88
2019-02-11T09:55:54.971Z,101350.59
2019-02-11T09:58:20.789Z,101347.59
2019-02-11T10:00:46.872Z,101351.30
2019-02-11T10:03:12.815Z,101361.20
2019-02-11T10:05:38.665Z,101366.70
2019-02-11T10:08:04.483Z,101377.58
2019-02-11T10:10:30.428Z,101379.50
2019-02-11T10:12:56.366Z,101384.20
2019-02-11T10:15:22.361Z,101392.00
2019-02-11T10:17:48.196Z,101395.42
2019-02-11T10:20:14.724Z,101404.14
2019-02-11T10:22:41.013Z,101410.95
2019-02-11T10:25:13.132Z,101419.28
2019-02-11T10:27:38.989Z,101416.64
2019-02-11T10:30:08.629Z,101424.36
2019-02-11T10:32:34.497Z,101418.48
2019-02-11T10:35:00.363Z,101417.57
2019-02-11T10:37:26.223Z,101416.17
2019-02-11T10:39:52.032Z,101421.88
2019-02-11T10:42:17.895Z,101423.23
2019-02-11T10:44:43.830Z,101422.99
2019-02-11T10:47:09.975Z,101426.97
2019-02-11T10:49:35.833Z,101420.72
2019-02-11T10:52:01.725Z,101416.13
2019-02-11T10:54:27.754Z,101431.84
2019-02-11T10:56:53.615Z,101436.25
2019-02-11T10:59:19.484Z,101435.69
2019-02-11T11:01:45.344Z,101440.39
2019-02-11T11:04:11.384Z,101446.13
2019-02-11T11:06:37.211Z,101443.37
2019-02-11T11:09:06.382Z,101445.63
2019-02-11T11:11:32.206Z,101443.70
2019-02-11T11:13:58.068Z,101452.27
2019-02-11T11:16:29.382Z,101443.34
2019-02-11T11:18:51.671Z,101454.18
2019-02-11T11:21:18.412Z,101459.12
2019-02-11T11:23:44.259Z,101466.71
2019-02-11T11:26:10.101Z,101471.84
2019-02-11T11:28:37.449Z,101474.13
2019-02-11T11:31:03.412Z,101486.79
2019-02-11T11:33:29.240Z,101479.59
2019-02-11T11:35:55.079Z,101494.31
2019-02-11T11:38:21.455Z,101489.47
2019-02-11T11:40:47.376Z,101490.39
2019-02-11T11:43:13.344Z,101490.47
2019-02-11T11:45:39.179Z,101488.12
2019-02-11T11:48:04.991Z,101493.30
2019-02-11T11:50:30.854Z,101506.83
2019-02-11T11:52:56.703Z,101500.58
2019-02-11T11:55:22.977Z,101504.70
2019-02-11T11:57:48.912Z,101506.61
2019-02-11T12:00:19.190Z,101515.47
2019-02-11T12:03:00.370Z,101528.64
2019-02-11T12:05:14.474Z,101531.78
2019-02-11T12:07:40.414Z,101536.66
2019-02-11T12:10:07.922Z,101542.86
2019-02-11T12:12:33.739Z,101557.61
2019-02-11T12:14:59.606Z,101568.48
2019-02-11T12:17:25.477Z,101571.72
2019-02-11T12:19:51.332Z,101572.14
2019-02-11T12:22:17.149Z,101585.83
2019-02-11T12:24:43.292Z,101594.03
2019-02-11T12:27:09.207Z,101595.12
2019-02-11T12:29:35.243Z,101607.01
2019-02-11T12:32:01.193Z,101610.66
2019-02-11T12:34:27.006Z,101615.55
2019-02-11T12:36:52.848Z,101617.64
2019-02-11T12:39:18.677Z,101624.41
2019-02-11T12:41:44.539Z,101629.09
2019-02-11T12:44:10.354Z,101644.26
2019-02-11T12:46:36.225Z,101641.75
2019-02-11T12:49:02.051Z,101628.97
2019-02-11T12:51:27.936Z,101637.72
2019-02-11T12:53:53.811Z,101639.48
2019-02-11T12:56:19.629Z,101647.48
2019-02-11T12:58:45.496Z,101651.20
2019-02-11T13:01:11.478Z,101658.86
2019-02-11T13:03:38.070Z,101668.52
2019-02-11T13:06:04.482Z,101670.86
2019-02-11T13:08:30.337Z,101669.23
2019-02-11T13:10:56.191Z,101665.16
2019-02-11T13:13:22.048Z,101669.72
2019-02-11T13:16:01.575Z,101663.45
2019-02-11T13:18:16.057Z,101668.05
2019-02-11T13:20:42.036Z,101663.56
2019-02-11T13:23:07.979Z,101665.19
2019-02-11T13:25:33.828Z,101677.59
2019-02-11T13:27:59.735Z,101670.30
2019-02-11T13:30:25.681Z,101682.29
2019-02-11T13:32:51.635Z,101684.57
2019-02-11T13:35:17.605Z,101687.93
2019-02-11T13:37:43.903Z,101693.32
2019-02-11T13:40:10.231Z,101701.92
2019-02-11T13:42:36.217Z,101705.93
2019-02-11T13:45:05.854Z,101723.91
2019-02-11T13:47:31.811Z,101723.11
2019-02-11T13:49:57.710Z,101736.64
2019-02-11T13:52:23.640Z,101747.47
2019-02-11T13:54:49.617Z,101753.00
2019-02-11T13:57:15.544Z,101760.95
2019-02-11T13:59:41.435Z,101764.67
2019-02-11T14:02:07.656Z,101771.79
2019-02-11T14:04:33.736Z,101772.13
2019-02-11T14:06:59.708Z,101778.29
2019-02-11T14:09:27.710Z,101780.61
2019-02-11T14:11:53.553Z,101784.52
2019-02-11T14:14:23.244Z,101788.58
2019-02-11T14:16:49.086Z,101790.08
2019-02-11T14:19:14.950Z,101789.09
2019-02-11T14:21:40.785Z,101793.66
2019-02-11T14:24:06.700Z,101812.23
2019-02-11T14:26:32.570Z,101816.54
2019-02-11T14:28:58.526Z,101823.36
2019-02-11T14:31:24.367Z,101827.72
2019-02-11T14:33:50.333Z,101830.59
2019-02-11T14:36:16.289Z,101826.77
2019-02-11T14:38:42.273Z,101828.38
2019-02-11T14:41:08.165Z,101829.61
2019-02-11T14:43:33.983Z,101841.08
2019-02-11T14:45:59.955Z,101831.75
2019-02-11T14:48:28.638Z,101834.92
2019-02-11T14:50:55.481Z,101827.98
2019-02-11T14:53:21.332Z,101831.52
2019-02-11T14:55:47.618Z,101830.46
2019-02-11T14:58:13.459Z,101830.42
2019-02-11T15:00:39.332Z,101833.53
2019-02-11T15:03:05.160Z,101841.41
2019-02-11T15:05:30.997Z,101839.86
2019-02-11T15:07:56.875Z,101849.72
2019-02-11T15:10:22.721Z,101857.66
2019-02-11T15:12:48.650Z,101860.58
2019-02-11T15:15:14.581Z,101863.53
2019-02-11T15:17:43.069Z,101862.12
2019-02-11T15:20:11.197Z,101861.98
2019-02-11T15:22:37.065Z,101852.58
2019-02-11T15:25:06.315Z,101857.99
2019-02-11T15:27:32.252Z,101857.86
2019-02-11T15:29:58.098Z,101866.98
2019-02-11T15:32:23.976Z,101876.98
2019-02-11T15:34:49.812Z,101895.39
2019-02-11T15:37:15.684Z,101901.93
2019-02-11T15:39:41.540Z,101904.95
2019-02-11T15:42:07.534Z,101909.64
2019-02-11T15:44:33.529Z,101917.06
2019-02-11T15:46:59.376Z,101929.80
2019-02-11T15:49:25.229Z,101938.22
2019-02-11T15:51:51.124Z,101939.41
2019-02-11T15:54:17.021Z,101945.13
2019-02-11T15:56:42.868Z,101952.05
2019-02-11T15:59:09.290Z,101957.70
2019-02-11T16:01:35.281Z,101962.45
2019-02-11T16:04:01.172Z,101968.77
2019-02-11T16:06:27.062Z,101973.27
2019-02-11T16:08:52.949Z,101983.70
2019-02-11T16:11:18.804Z,101981.92
2019-02-11T16:13:44.803Z,101984.42
2019-02-11T16:16:10.801Z,102004.22
2019-02-11T16:18:36.642Z,102001.70
2019-02-11T16:21:02.929Z,102023.45
2019-02-11T16:23:28.797Z,102027.53
2019-02-11T16:25:55.044Z,102036.32
2019-02-11T16:28:21.001Z,102043.77
2019-02-11T16:30:46.961Z,102050.70
2019-02-11T16:33:12.791Z,102054.06
2019-02-11T16:35:38.755Z,102065.48
2019-02-11T16:38:06.496Z,102081.22
2019-02-11T16:40:32.834Z,102093.12
2019-02-11T16:42:58.667Z,102082.94
2019-02-11T16:45:24.645Z,102101.28
2019-02-11T16:47:50.496Z,102098.61
2019-02-11T16:50:16.437Z,102111.31
2019-02-11T16:52:42.336Z,102118.63
2019-02-11T16:55:09.502Z,102130.49
2019-02-11T16:57:35.404Z,102126.30
2019-02-11T17:00:01.796Z,102138.36
2019-02-11T17:02:27.760Z,102148.73
2019-02-11T17:04:53.698Z,102159.28
2019-02-11T17:07:19.546Z,102164.77
2019-02-11T17:09:45.383Z,102173.95
2019-02-11T17:12:11.618Z,102183.50
2019-02-11T17:14:37.577Z,102185.45
2019-02-11T17:17:03.577Z,102192.03
2019-02-11T17:19:29.418Z,102193.17
2019-02-11T17:21:55.424Z,102192.21
2019-02-11T17:24:21.357Z,102211.34
2019-02-11T17:26:48.202Z,102221.42
2019-02-11T17:29:14.090Z,102225.41
2019-02-11T17:31:40.074Z,102237.02
2019-02-11T17:34:05.936Z,102239.63
2019-02-11T17:36:31.825Z,102241.16
2019-02-11T17:38:57.704Z,102243.50
2019-02-11T17:41:23.649Z,102249.64
2019-02-11T17:43:49.653Z,102255.98
2019-02-11T17:46:15.623Z,102260.02
2019-02-11T17:48:41.436Z,102263.00
2019-02-11T17:51:07.381Z,102266.21
2019-02-11T17:53:33.406Z,102270.36
2019-02-11T17:55:59.289Z,102274.55
2019-02-11T17:58:25.259Z,102278.69
2019-02-11T18:00:53.156Z,102285.98
2019-02-11T18:03:19.031Z,102295.24
2019-02-11T18:05:45.001Z,102297.14
2019-02-11T18:08:11.101Z,102299.73
2019-02-11T18:10:37.057Z,102309.66
2019-02-11T18:13:03.072Z,102306.17
2019-02-11T18:15:29.057Z,102306.21
2019-02-11T18:17:55.122Z,102320.41
2019-02-11T18:20:21.124Z,102324.75
2019-02-11T18:22:47.043Z,102326.13
2019-02-11T18:25:13.016Z,102325.04
2019-02-11T18:27:38.951Z,102324.27
2019-02-11T18:30:09.124Z,102323.69
2019-02-11T18:32:35.187Z,102335.58
2019-02-11T18:35:01.679Z,102333.52
2019-02-11T18:37:27.545Z,102333.52
2019-02-11T18:39:53.504Z,102329.73
2019-02-11T18:42:19.364Z,102337.33
2019-02-11T18:44:45.542Z,102350.64
2019-02-11T18:47:11.392Z,102360.07
2019-02-11T18:49:37.346Z,102358.75
2019-02-11T18:52:03.324Z,102365.33
2019-02-11T18:54:29.230Z,102374.81
2019-02-11T18:56:55.092Z,102381.23
2019-02-11T18:59:24.739Z,102388.75
2019-02-11T19:01:49.283Z,102392.81
2019-02-11T19:04:15.763Z,102391.59
2019-02-11T19:06:41.849Z,102390.06
2019-02-11T19:09:09.736Z,102405.02
2019-02-11T19:11:35.635Z,102401.84
2019-02-11T19:14:01.585Z,102413.76
2019-02-11T19:16:27.736Z,102416.02
2019-02-11T19:18:53.785Z,102412.28
2019-02-11T19:21:19.768Z,102415.11
2019-02-11T19:23:45.602Z,102402.34
2019-02-11T19:26:11.593Z,102408.79
2019-02-11T19:28:37.453Z,102410.80
2019-02-11T19:31:04.140Z,102393.97
2019-02-11T19:33:29.992Z,102377.11
2019-02-11T19:35:56.006Z,102383.16
2019-02-11T19:38:21.880Z,102378.55
2019-02-11T19:40:47.714Z,102382.23
2019-02-11T19:43:14.075Z,102395.13
2019-02-11T19:45:40.069Z,102398.86
2019-02-11T19:48:06.020Z,102418.72
2019-02-11T19:50:31.853Z,102427.17
2019-02-11T19:52:57.883Z,102433.45
2019-02-11T19:55:23.848Z,102442.77
2019-02-11T19:57:49.745Z,102458.59
2019-02-11T20:00:20.980Z,102465.73
2019-02-11T20:02:47.882Z,102459.31
2019-02-11T20:05:13.963Z,102450.63
2019-02-11T20:07:40.040Z,102455.56
2019-02-11T20:10:09.721Z,102444.30
2019-02-11T20:12:35.732Z,102435.23
2019-02-11T20:15:03.213Z,102448.02
2019-02-11T20:17:29.257Z,102462.58
2019-02-11T20:20:00.356Z,102464.86
2019-02-11T20:22:23.086Z,102476.73
2019-02-11T20:24:49.182Z,102477.30
2019-02-11T20:27:15.052Z,102485.67
2019-02-11T20:29:41.040Z,102489.22
2019-02-11T20:32:06.868Z,102493.20
2019-02-11T20:34:32.877Z,102492.88
2019-02-11T20:36:59.216Z,102496.91
2019-02-11T20:39:25.214Z,102504.83
2019-02-11T20:41:51.163Z,102508.40
2019-02-11T20:44:17.023Z,102515.41
2019-02-11T20:46:42.986Z,102520.70
2019-02-11T20:49:09.052Z,102532.03
2019-02-11T20:51:34.998Z,102534.53
2019-02-11T20:54:01.099Z,102531.64
2019-02-11T20:56:27.494Z,102538.00
2019-02-11T20:58:55.980Z,102542.50
2019-02-11T21:01:23.834Z,102544.86
2019-02-11T21:03:49.801Z,102543.28
2019-02-11T21:06:15.751Z,102550.37
2019-02-11T21:08:41.602Z,102553.79
2019-02-11T21:11:07.489Z,102557.45
2019-02-11T21:13:33.546Z,102562.09
2019-02-11T21:15:59.524Z,102557.50
2019-02-11T21:18:25.452Z,102558.23
2019-02-11T21:20:51.402Z,102559.80
2019-02-11T21:23:17.360Z,102562.16
2019-02-11T21:25:43.553Z,102572.80
2019-02-11T21:28:09.405Z,102576.83
2019-02-11T21:30:35.647Z,102587.41
2019-02-11T21:33:01.519Z,102587.05
2019-02-11T21:35:27.404Z,102584.89
2019-02-11T21:37:53.370Z,102592.74
2019-02-11T21:40:22.526Z,102596.30
2019-02-11T21:42:48.386Z,102601.59
2019-02-11T21:45:14.572Z,102604.75
2019-02-11T21:47:40.505Z,102606.97
2019-02-11T21:50:15.104Z,102608.81
2019-02-11T21:52:40.951Z,102616.74
2019-02-11T21:55:12.784Z,102624.22
2019-02-11T21:57:38.821Z,102625.56
2019-02-11T22:00:14.234Z,102626.47
2019-02-11T22:02:40.095Z,102630.42
2019-02-11T22:05:07.050Z,102630.02
2019-02-11T22:07:32.863Z,102634.39
2019-02-11T22:09:58.716Z,102632.52
2019-02-11T22:12:24.552Z,102633.66
2019-02-11T22:14:50.395Z,102636.16
2019-02-11T22:17:16.713Z,102634.80
2019-02-11T22:19:42.538Z,102637.38
2019-02-11T22:22:08.402Z,102638.64
2019-02-11T22:24:36.325Z,102642.97
2019-02-11T22:27:02.164Z,102644.69
2019-02-11T22:29:28.015Z,102657.37
2019-02-11T22:31:53.866Z,102656.91
2019-02-11T22:34:19.872Z,102655.56
2019-02-11T22:36:45.721Z,102659.91
2019-02-11T22:39:11.623Z,102650.73
2019-02-11T22:41:37.465Z,102657.69
2019-02-11T22:44:03.357Z,102653.66
2019-02-11T22:46:29.245Z,102647.44
2019-02-11T22:48:55.122Z,102647.77
2019-02-11T22:51:21.063Z,102646.02
2019-02-11T22:53:46.916Z,102651.27
2019-02-11T22:56:12.740Z,102653.48
2019-02-11T22:58:38.696Z,102651.30
2019-02-11T23:01:06.243Z,102649.60
2019-02-11T23:03:32.780Z,102649.60
2019-02-11T23:06:01.484Z,102663.09
2019-02-11T23:08:27.438Z,102655.04
2019-02-11T23:10:53.261Z,102659.27
2019-02-11T23:13:19.180Z,102665.20
2019-02-11T23:15:45.158Z,102659.84
2019-02-11T23:18:10.987Z,102669.94
2019-02-11T23:20:36.867Z,102673.87
2019-02-11T23:23:02.832Z,102682.17
2019-02-11T23:25:28.772Z,102685.20
2019-02-11T23:27:54.592Z,102693.45
2019-02-11T23:30:20.509Z,102698.59
2019-02-11T23:32:46.607Z,102702.64
2019-02-11T23:35:12.453Z,102716.76
2019-02-11T23:37:38.282Z,102714.08
2019-02-11T23:40:06.952Z,102710.19
2019-02-11T23:42:32.808Z,102708.44
2019-02-11T23:44:58.658Z,102691.80
2019-02-11T23:47:24.492Z,102690.78
2019-02-11T23:49:50.910Z,102689.72
2019-02-11T23:52:16.734Z,102701.74
2019-02-11T23:54:42.573Z,102706.47
2019-02-11T23:57:08.412Z,102709.36
2019-02-11T23:59:34.250Z,102710.56
